Latest Coastal Weather Observations for King Island Airport

IDV60701

Issued at 2:51 am EDT Saturday 20 December 2014 (issued every 10 minutes, with the page automatically refreshed every 10 minutes)

About coastal observations | Map of coastal stations | Coastal observations for VIC | Marine services | Other Formats
Station Details ID: 098017 Name: KING ISLAND AIRPORT Lat: -39.88 Lon: 143.88 Height: 37.0 m
Data from the previous 72 hours. | See also: Recent months at King Island Airport
Date/Time
EDT
Temp

°C
Wind Pressure Rain
since 9am
mm
Weather Cloud Vis
km
Sea
Height
m
Swell
Dir
 
Speed
knots
Gust
knots
hPa Trend Height
m
Period
s
Dir
20/02:30am 14.5 W 13 17 1016.4 - 0.0 - Partly cloudy 10 - - - -
20/02:00am 14.5 W 13 17 1016.8 - 0.0 - Partly cloudy 10 - - - -
20/01:30am 14.2 WNW 12 16 1017.2 - 0.0 - Partly cloudy 10 - - - -
20/01:00am 14.8 WNW 13 20 1017.6 - 0.0 - Partly cloudy 10 - - - -
20/12:30am 14.8 WNW 12 17 1017.8 - 0.0 - Partly cloudy 10 - - - -
20/12:00am 14.8 WNW 11 15 1018.1 - 0.0 - Cloudy 10 - - - -
 
Date/Time
EDT
Temp

°C
Wind Pressure Rain
since 9am
mm
Weather Cloud Vis
km
Sea
Height
m
Swell
Dir
 
Speed
knots
Gust
knots
hPa Trend Height
m
Period
s
Dir
19/11:30pm 14.7 WNW 11 15 1018.3 - 0.0 - Partly cloudy 10 - - - -
19/11:00pm 14.3 W 11 15 1018.6 - 0.0 - Partly cloudy 10 - - - -
19/10:30pm 14.2 W 11 15 1018.9 - 0.0 - Partly cloudy 10 - - - -
19/10:00pm 14.6 W 11 15 1018.7 - 0.0 - Partly cloudy 10 - - - -
19/09:30pm 14.4 W 12 17 1018.6 - 0.0 - Partly cloudy 10 - - - -
19/09:00pm 14.3 W 13 17 1018.7 - 0.0 - Cloudy 10 - - - -
19/08:30pm 14.6 W 12 17 1018.6 - 0.0 - Partly cloudy 10 - - - -
19/08:00pm 14.3 W 13 18 1018.6 - 0.0 - Partly cloudy 10 - - - -
19/07:30pm 15.4 W 14 18 1018.2 - 0.0 - Partly cloudy 10 - - - -
19/07:00pm 15.2 W 14 18 1017.9 - 0.0 - Partly cloudy 10 - - - -
19/06:30pm 15.5 W 15 19 1017.8 - 0.0 - Partly cloudy 10 - - - -
19/06:00pm 15.6 W 16 22 1017.5 - 0.0 - Cloudy 10 - - - -
19/05:30pm 16.3 W 15 19 1017.5 - 0.0 - Partly cloudy 10 - - - -
19/05:00pm 16.5 W 15 23 1017.6 - 0.0 - Partly cloudy 10 - - - -
19/04:30pm 16.7 W 16 20 1017.6 - 0.0 - Partly cloudy 10 - - - -
19/04:00pm 16.2 W 15 22 1017.5 - 0.0 - - 10 - - - -
19/03:30pm 16.7 W 17 22 1017.8 - 0.0 - Partly cloudy 10 - - - -
19/03:00pm 15.5 WSW 14 18 1017.6 - 0.0 - Cloudy 10 - - - -
19/02:30pm 16.3 WSW 13 19 1017.6 - 0.0 - Partly cloudy 10 - - - -
19/02:00pm 16.6 W 15 20 1017.5 - 0.0 - Partly cloudy 10 - - - -
19/01:30pm 15.8 W 12 18 1017.6 - 0.0 - Cloudy 10 - - - -
19/01:00pm 15.2 W 12 18 1017.5 - 0.0 - Partly cloudy 10 - - - -
19/12:30pm 16.0 WSW 12 17 1017.2 - 0.0 - Partly cloudy 10 - - - -
19/12:00pm 16.1 WSW 12 18 1017.2 - 0.0 - Mostly clear 10 - - - -
19/11:30am 14.9 WSW 12 19 1017.1 - 0.0 - Partly cloudy 10 - - - -
19/11:00am 15.7 WSW 13 18 1017.0 - 0.0 - Partly cloudy 10 - - - -
19/10:30am 15.0 SSW 14 19 1017.0 - 0.0 - Partly cloudy 10 - - - -
19/10:00am 15.2 SW 14 19 1016.7 - 0.0 - Partly cloudy 10 - - - -
19/09:30am 14.3 SW 13 18 1016.5 - 0.0 - Partly cloudy 10 - - - -
19/09:00am 14.5 SW 11 16 1016.2 - 4.6 - Partly cloudy 10 - - - -
19/08:30am 14.0 SW 14 17 1015.8 - 4.6 - Partly cloudy 10 - - - -
19/08:00am 14.2 SW 12 16 1015.4 - 4.6 - Partly cloudy 10 - - - -
19/07:30am 13.7 SW 10 15 1015.0 - 4.6 - Partly cloudy 10 - - - -
19/07:00am 13.0 SW 8 11 1014.6 - 4.6 - Partly cloudy 10 - - - -
19/06:30am 12.2 SW 9 13 1014.3 - 4.6 - Partly cloudy 10 - - - -
19/06:00am 11.8 SW 10 15 1014.2 - 4.6 Rain Cloudy 10 - - - -
19/05:30am 11.5 WSW 9 15 1013.7 - 4.6 - Partly cloudy 10 - - - -
19/05:00am 11.7 SW 9 12 1013.4 - 4.4 - Partly cloudy 10 - - - -
19/04:30am 12.3 SW 10 14 1012.9 - 4.4 - Partly cloudy 10 - - - -
19/04:00am 11.8 WSW 15 21 1012.9 - 4.4 - Partly cloudy 10 - - - -
19/03:30am 12.5 SW 12 16 1012.7 - 4.4 - Partly cloudy 10 - - - -
19/03:00am 12.3 WSW 10 16 1012.4 - 4.4 Drizzle Mostly clear 10 - - - -
19/02:30am 11.6 W 10 15 1012.3 - 4.4 - Partly cloudy 10 - - - -
19/02:00am 12.3 WSW 10 15 1012.3 - 4.4 - Partly cloudy 10 - - - -
19/01:30am 12.3 WSW 11 14 1012.3 - 4.4 - Partly cloudy 10 - - - -
19/01:00am 12.1 WSW 14 19 1012.3 - 4.4 - Partly cloudy 10 - - - -
19/12:30am 13.1 WSW 13 19 1012.1 - 4.4 - Partly cloudy 10 - - - -
19/12:00am 12.9 W 10 15 1011.9 - 4.4 Rain Mostly cloudy 10 - - - -
 
Date/Time
EDT
Temp

°C
Wind Pressure Rain
since 9am
mm
Weather Cloud Vis
km
Sea
Height
m
Swell
Dir
 
Speed
knots
Gust
knots
hPa Trend Height
m
Period
s
Dir
18/11:30pm 13.4 WSW 13 18 1011.9 - 4.4 - Partly cloudy 10 - - - -
18/11:00pm 13.5 WSW 15 18 1011.7 - 4.4 - Partly cloudy 10 - - - -
18/10:30pm 13.1 SW 11 16 1011.6 - 4.4 - Partly cloudy 10 - - - -
18/10:00pm 13.3 WSW 13 18 1011.4 - 4.4 - - 10 - - - -
18/09:30pm 13.2 WSW 13 18 1011.1 - 4.4 - Partly cloudy 10 - - - -
18/09:00pm 13.4 SW 14 18 1010.8 - 4.4 - Mostly clear 10 - - - -
18/08:30pm 13.9 WSW 16 22 1010.5 - 4.4 - Partly cloudy 10 - - - -
18/08:00pm 14.2 WSW 16 22 1010.0 - 4.4 - Partly cloudy 10 - - - -
18/07:30pm 15.0 WSW 17 23 1009.4 - 4.4 - - 10 - - - -
18/07:00pm 15.3 WSW 18 25 1008.8 - 4.4 - Partly cloudy 10 - - - -
18/06:48pm 15.4 WSW 17 27 1008.6 - 4.4 - Partly cloudy 10 - - - -
18/06:30pm 15.6 WSW 17 23 1008.3 - 4.4 - Partly cloudy 10 - - - -
18/06:00pm 16.1 WSW 19 27 1007.8 - 4.4 - Mostly clear 10 - - - -
18/05:30pm 16.3 W 17 22 1007.4 - 4.4 - Partly cloudy 10 - - - -
18/05:00pm 15.0 WSW 14 20 1007.1 - 4.4 - Partly cloudy 10 - - - -
18/04:30pm 15.4 W 14 19 1006.7 - 4.4 - Partly cloudy 10 - - - -
18/04:09pm 14.5 WSW 17 27 1006.6 - 4.4 - Partly cloudy 10 - - - -
18/04:00pm 15.2 WSW 19 27 1006.4 - 4.4 - Partly cloudy 10 - - - -
18/03:41pm 16.1 W 15 25 1005.9 - 4.4 - Partly cloudy 10 - - - -
18/03:30pm 16.2 WNW 14 18 1005.8 - 4.4 - Partly cloudy 10 - - - -
18/03:00pm 14.3 WNW 14 20 1005.7 - 4.4 Rain Cloudy 10 - - - -
18/02:30pm 16.7 WNW 15 19 1005.3 - 4.4 - Partly cloudy 10 - - - -
18/02:00pm 15.1 W 13 18 1005.1 - 4.4 - Partly cloudy 10 - - - -
18/01:30pm 13.2 W 11 15 1005.1 - 4.4 - Partly cloudy 10 - - - -
18/01:00pm 12.2 W 14 18 1005.3 - 4.2 - Partly cloudy 8 - - - -
18/12:41pm 12.6 WNW 20 27 1005.4 - 2.8 - Partly cloudy 5 - - - -
18/12:40pm 12.6 WNW 20 27 1005.3 - 2.8 - Partly cloudy 6 - - - -
18/12:30pm 12.8 WNW 22 32 1005.2 - 2.0 - Partly cloudy 5 - - - -
18/12:25pm 13.3 NW 23 32 1005.0 - 1.8 - Partly cloudy 4 - - - -
18/12:23pm 13.6 NW 24 32 1004.8 - 1.6 - Partly cloudy 5 - - - -
18/12:21pm 14.0 NW 24 32 1004.7 - 1.4 - Partly cloudy 5 - - - -
18/12:00pm 15.7 NNW 19 26 1004.4 - 0.0 Showers Cloudy 10 - - - -
18/11:30am 15.0 NNW 17 22 1004.4 - 0.0 - Partly cloudy 10 - - - -
18/11:00am 15.2 NW 20 27 1004.5 - 0.0 - Partly cloudy 10 - - - -
18/10:30am 16.7 NNW 20 26 1004.5 - 0.0 - Partly cloudy 10 - - - -
18/10:00am 16.8 NNW 19 24 1004.6 - 0.0 - Partly cloudy 10 - - - -
18/09:30am 16.5 NNW 18 21 1004.8 - 0.0 - Partly cloudy 10 - - - -
18/09:00am 16.3 NW 19 23 1004.9 - 0.0 - Cloudy 10 - - - -
18/08:30am 16.7 NNW 17 22 1004.7 - 0.0 - Partly cloudy 10 - - - -
18/08:00am 16.2 N 15 22 1004.6 - 0.0 - Partly cloudy 10 - - - -
18/07:30am 15.5 N 12 17 1004.4 - 0.0 - Cloudy 10 - - - -
18/07:00am 14.5 N 7 12 1004.4 - 0.0 - Cloudy 10 - - - -
18/06:30am 12.3 NNE 5 6 1004.2 - 0.0 - Cloudy 10 - - - -
18/06:00am 11.7 NNE 9 16 1004.1 - 0.0 - Partly cloudy 10 - - - -
18/05:30am 9.7 NE 8 9 1004.2 - 0.0 - - 10 - - - -
18/05:00am 10.4 NE 7 8 1004.3 - 0.0 - Partly cloudy 10 - - - -
18/04:30am 11.1 NE 7 8 1004.6 - 0.0 - Cloudy 10 - - - -
18/04:00am 12.3 NNE 6 7 1004.8 - 0.0 - Cloudy 10 - - - -
18/03:30am 11.2 NE 7 8 1005.1 - 0.0 - Cloudy 10 - - - -
18/03:00am 11.0 NE 6 7 1005.5 - 0.0 - Mostly cloudy 10 - - - -
18/02:30am 10.6 NE 4 6 1005.7 - 0.0 - Cloudy 10 - - - -
18/02:00am 10.1 ENE 3 4 1006.1 - 0.0 - Partly cloudy 10 - - - -
18/01:30am 9.1 CALM 0 0 1006.3 - 0.0 - Partly cloudy 10 - - - -
18/01:00am 9.1 NNE 1 3 1006.5 - 0.0 - Partly cloudy 10 - - - -
18/12:30am 8.9 NE 4 5 1006.7 - 0.0 - Partly cloudy 10 - - - -
18/12:00am 8.7 NE 4 5 1006.9 - 0.0 - - 10 - - - -
 
Date/Time
EDT
Temp

°C
Wind Pressure Rain
since 9am
mm
Weather Cloud Vis
km
Sea
Height
m
Swell
Dir
 
Speed
knots
Gust
knots
hPa Trend Height
m
Period
s
Dir
17/11:30pm 8.9 NE 4 5 1007.1 - 0.0 - - 10 - - - -
17/11:00pm 8.5 ENE 5 5 1007.4 - 0.0 - - 10 - - - -
17/10:30pm 10.7 CALM 0 0 1007.6 - 0.0 - - 10 - - - -
17/10:00pm 11.5 CALM 0 0 1007.7 - 0.0 - - 10 - - - -
17/09:30pm 12.9 WNW 7 8 1007.8 - 0.0 - - 10 - - - -
17/09:00pm 13.2 WNW 6 7 1007.9 - 0.0 - Mostly clear 10 - - - -
17/08:30pm 14.3 WNW 7 10 1008.0 - 0.0 - - 10 - - - -
17/08:00pm 14.7 WNW 9 13 1008.1 - 0.0 - - 10 - - - -
17/07:30pm 15.2 WNW 9 12 1007.8 - 0.0 - - 10 - - - -
17/07:00pm 15.3 WNW 9 14 1007.7 - 0.0 - - 10 - - - -
17/06:30pm 15.9 NW 10 16 1007.6 - 0.0 - - 10 - - - -
17/06:00pm 15.5 NW 11 14 1007.6 - 0.0 - - 10 - - - -
17/05:30pm 16.2 WNW 11 15 1008.0 - 0.0 - Partly cloudy 10 - - - -
17/05:00pm 16.6 WNW 12 16 1008.1 - 0.0 - Partly cloudy 10 - - - -
17/04:30pm 15.2 NW 14 19 1008.2 - 0.0 - Partly cloudy 10 - - - -
17/04:00pm 16.4 WNW 14 19 1008.2 - 0.0 - - 10 - - - -
17/03:30pm 16.4 WNW 13 17 1008.4 - 0.0 - Partly cloudy 10 - - - -
17/03:00pm 15.9 WNW 11 16 1008.5 - 0.0 - Cloudy 10 - - - -
17/02:30pm 15.7 W 13 17 1008.6 - 0.0 - Partly cloudy 10 - - - -
17/02:00pm 17.2 WNW 13 17 1008.5 - 0.0 - Partly cloudy 10 - - - -
17/01:30pm 16.8 WNW 15 20 1008.8 - 0.0 - Partly cloudy 10 - - - -
17/01:00pm 16.0 W 15 19 1008.7 - 0.0 - Partly cloudy 10 - - - -
17/12:30pm 16.3 W 13 17 1008.6 - 0.0 - Partly cloudy 10 - - - -
17/12:00pm 16.2 W 13 18 1008.4 - 0.0 - - 10 - - - -
17/11:30am 16.2 W 14 19 1008.3 - 0.0 - - 10 - - - -
17/11:00am 15.6 W 13 17 1008.2 - 0.0 - Partly cloudy 10 - - - -
17/10:30am 15.4 W 13 18 1008.2 - 0.0 - Partly cloudy 10 - - - -
17/10:00am 15.3 W 15 20 1007.9 - 0.0 - Partly cloudy 10 - - - -
17/09:30am 14.5 WSW 14 19 1007.9 - 0.0 - Partly cloudy 10 - - - -
17/09:00am 14.7 W 13 18 1007.7 - 3.8 - Mostly clear 10 - - - -
17/08:30am 14.4 WSW 13 17 1007.4 - 3.8 - Partly cloudy 10 - - - -
17/08:00am 13.6 W 11 16 1006.9 - 3.8 - Partly cloudy 10 - - - -
17/07:30am 13.8 WSW 14 19 1006.4 - 3.8 - Partly cloudy 10 - - - -
17/07:00am 12.9 WSW 11 16 1006.0 - 3.8 - Partly cloudy 10 - - - -
17/06:30am 12.9 WSW 12 17 1005.7 - 3.8 - Partly cloudy 10 - - - -
17/06:00am 12.6 SW 13 17 1005.2 - 3.8 - Cloudy 10 - - - -
17/05:30am 12.0 WSW 10 15 1005.0 - 3.8 - Partly cloudy 10 - - - -
17/05:00am 12.1 WSW 14 20 1004.5 - 3.8 - Partly cloudy 10 - - - -
17/04:30am 12.2 WSW 13 19 1004.1 - 3.8 - Partly cloudy 10 - - - -
17/04:00am 12.3 SW 15 21 1003.9 - 3.8 - Partly cloudy 10 - - - -
17/03:30am 12.4 SW 15 20 1003.7 - 3.8 - Partly cloudy 10 - - - -
17/03:00am 12.7 WSW 14 21 1003.6 - 3.8 - Mostly cloudy 10 - - - -

Other Formats:

Comma delimited format used in spreadsheet applications
http://www.bom.gov.au/fwo/IDV60701/IDV60701.94850.axf

JavaScript Object Notation format (JSON) in row-major order
http://www.bom.gov.au/fwo/IDV60701/IDV60701.94850.json